Time;durP1;ratioP1;P1;durP2;ratioP2;P2;SDS_P1;SDS_P2;PMS_P1;PMS_P2;Temp;Humidity;BMP_temperature;BMP_pressure;BME280_temperature;BME280_humidity;BME280_pressure;Samples;Min_cycle;Max_cycle;Signal;HPM_P1;HPM_P2
2022/03/01 00:01:19;;;;;;;;;35.25;29.50;;;;;11.39;37.69;102332.19;4997569;27;45461;-91
2022/03/01 00:03:44;;;;;;;;;23.75;23.00;;;;;11.40;38.19;102328.59;5097555;27;45393;-91
2022/03/01 00:06:10;;;;;;;;;28.75;27.75;;;;;11.11;38.27;102290.09;5012078;28;45816;-91
2022/03/01 00:08:35;;;;;;;;;28.50;25.75;;;;;10.85;38.19;102245.28;5011459;27;45402;-91
2022/03/01 00:11:00;;;;;;;;;32.00;30.00;;;;;10.89;38.71;102262.13;5035019;27;45523;-91
2022/03/01 00:13:26;;;;;;;;;31.25;28.00;;;;;10.68;38.55;102232.28;5004719;27;47176;-91
2022/03/01 00:15:51;;;;;;;;;40.75;29.75;;;;;10.90;38.33;102278.06;5023339;28;45344;-91
2022/03/01 00:18:16;;;;;;;;;31.00;28.75;;;;;11.22;38.63;102321.91;5085672;27;45388;-91
2022/03/01 00:20:42;;;;;;;;;28.25;28.25;;;;;10.87;38.54;102261.25;5029044;28;45423;-91
2022/03/01 00:23:07;;;;;;;;;28.75;28.75;;;;;10.89;38.44;102260.31;4995742;28;48071;-91
2022/03/01 00:25:32;;;;;;;;;35.25;30.00;;;;;11.59;38.04;102378.06;5009420;27;45906;-90
2022/03/01 00:27:58;;;;;;;;;32.75;29.50;;;;;11.02;37.68;102260.06;5019274;28;45427;-91
2022/03/01 00:30:24;;;;;;;;;40.50;32.50;;;;;10.98;38.41;102262.78;5091102;27;45298;-90
2022/03/01 00:32:50;;;;;;;;;33.25;30.25;;;;;11.01;38.95;102279.66;5100509;27;45388;-91
2022/03/01 00:35:15;;;;;;;;;36.75;31.75;;;;;11.43;39.02;102354.38;5009999;27;45771;-91
2022/03/01 00:37:41;;;;;;;;;34.00;30.00;;;;;10.85;39.38;102271.94;5029008;28;45380;-90
2022/03/01 00:40:07;;;;;;;;;23.25;20.75;;;;;10.76;39.76;102253.47;4997288;27;45481;-90
2022/03/01 00:42:32;;;;;;;;;35.00;31.75;;;;;10.47;39.59;102216.72;5016682;28;45423;-91
2022/03/01 00:44:57;;;;;;;;;34.50;32.00;;;;;10.30;39.74;102211.69;4998642;28;45358;-91
2022/03/01 00:47:23;;;;;;;;;36.25;33.00;;;;;10.42;39.96;102230.16;4999389;28;45464;-91
2022/03/01 00:49:48;;;;;;;;;43.00;33.00;;;;;10.56;40.31;102260.06;4999661;28;45355;-90
2022/03/01 00:52:13;;;;;;;;;35.25;29.50;;;;;10.57;40.38;102263.63;4998700;28;47192;-91
2022/03/01 00:54:39;;;;;;;;;40.25;33.25;;;;;10.80;40.42;102326.31;4998595;28;45849;-91
2022/03/01 00:57:04;;;;;;;;;39.00;33.25;;;;;10.41;40.81;102279.00;4998693;28;45446;-90
2022/03/01 00:59:30;;;;;;;;;41.50;34.75;;;;;9.73;41.32;102157.66;4999378;28;45357;-91
2022/03/01 01:01:55;;;;;;;;;40.50;33.75;;;;;10.04;40.66;102231.66;4998198;28;47257;-90
2022/03/01 01:04:21;;;;;;;;;40.50;33.25;;;;;10.00;41.01;102222.00;4998525;28;45431;-91
2022/03/01 01:06:46;;;;;;;;;39.25;33.50;;;;;10.30;41.36;102268.56;4998582;28;45268;-91
2022/03/01 01:09:13;;;;;;;;;43.50;35.00;;;;;10.08;40.86;102228.06;4999032;28;45646;-90
2022/03/01 01:11:44;;;;;;;;;36.25;32.75;;;;;10.13;41.21;102233.31;5016239;28;45607;-91
2022/03/01 01:14:10;;;;;;;;;47.25;39.25;;;;;10.36;40.96;102278.22;5016147;28;45508;-90
2022/03/01 01:16:35;;;;;;;;;44.75;36.75;;;;;10.73;41.51;102350.41;5015408;28;45470;-91
2022/03/01 01:19:01;;;;;;;;;45.50;36.25;;;;;10.48;41.90;102307.31;4998554;28;45275;-90
2022/03/01 01:22:39;;;;;;;;;42.25;35.75;;;;;9.98;41.62;102231.78;4998475;28;46883;-91
2022/03/01 01:24:11;;;;;;;;;38.75;34.50;;;;;10.00;42.04;102222.00;5016038;28;45454;-91
2022/03/01 01:26:37;;;;;;;;;48.25;40.75;;;;;10.55;41.47;102311.63;4998471;28;45431;-91
2022/03/01 01:29:02;;;;;;;;;51.75;42.25;;;;;9.95;41.49;102202.56;4998539;28;45484;-91
2022/03/01 01:31:27;;;;;;;;;56.00;42.25;;;;;10.23;41.63;102255.31;4998421;28;48169;-91
2022/03/01 01:33:53;;;;;;;;;55.25;44.75;;;;;10.19;41.63;102253.66;5015716;28;45490;-90
2022/03/01 01:36:18;;;;;;;;;52.25;41.50;;;;;10.23;41.56;102276.63;4998293;28;45669;-91
2022/03/01 01:38:43;;;;;;;;;49.50;40.25;;;;;10.15;41.66;102275.00;4998860;28;45484;-90
2022/03/01 01:41:09;;;;;;;;;50.75;41.25;;;;;9.97;41.75;102246.00;5015367;27;45420;-91
2022/03/01 01:43:34;;;;;;;;;50.75;41.00;;;;;10.12;41.97;102285.72;4998199;28;45476;-91
2022/03/01 01:45:59;;;;;;;;;46.50;39.75;;;;;9.98;42.26;102265.56;4997902;28;45465;-91
2022/03/01 01:48:25;;;;;;;;;51.00;41.25;;;;;9.81;42.37;102249.81;4998433;28;45468;-91
2022/03/01 01:50:50;;;;;;;;;50.50;39.50;;;;;9.39;42.54;102180.41;4997886;28;46974;-90
2022/03/01 01:53:16;;;;;;;;;46.75;38.50;;;;;9.97;41.79;102279.75;4997943;28;45514;-91
2022/03/01 01:55:41;;;;;;;;;46.75;37.25;;;;;9.91;42.43;102262.09;4998218;28;45333;-90
2022/03/01 01:58:06;;;;;;;;;50.75;42.00;;;;;9.80;42.02;102230.31;4998227;28;45634;-90
2022/03/01 02:00:32;;;;;;;;;54.25;41.50;;;;;10.00;42.18;102259.28;5015656;28;46545;-90
2022/03/01 02:02:59;;;;;;;;;54.50;41.00;;;;;10.12;42.14;102276.84;4997862;28;45537;-91
2022/03/01 02:05:25;;;;;;;;;53.00;43.00;;;;;10.31;42.10;102304.09;4998222;28;45390;-91
2022/03/01 02:07:50;;;;;;;;;50.75;39.50;;;;;9.84;42.25;102250.66;4997832;28;45531;-90
2022/03/01 02:10:17;;;;;;;;;43.25;35.75;;;;;10.01;42.64;102281.47;4997487;28;46882;-90
2022/03/01 02:12:42;;;;;;;;;47.50;37.50;;;;;10.15;42.40;102301.63;4997930;28;45388;-90
2022/03/01 02:15:08;;;;;;;;;46.00;37.25;;;;;9.72;42.35;102230.44;4998017;28;45390;-91
2022/03/01 02:17:34;;;;;;;;;48.75;39.00;;;;;9.77;42.28;102235.69;4998206;28;45382;-90
2022/03/01 02:19:59;;;;;;;;;45.00;38.75;;;;;10.51;42.42;102365.94;5009876;28;47544;-90
2022/03/01 02:22:33;;;;;;;;;46.25;36.25;;;;;10.17;42.63;102312.28;4998460;28;45425;-91
2022/03/01 02:24:58;;;;;;;;;47.75;37.75;;;;;10.43;42.43;102362.50;4997982;28;45487;-91
2022/03/01 02:27:23;;;;;;;;;47.25;39.25;;;;;9.57;42.58;102217.38;4997865;28;45368;-90
2022/03/01 02:29:49;;;;;;;;;48.75;39.00;;;;;10.17;42.34;102292.75;4997370;28;47829;-91
2022/03/01 02:32:14;;;;;;;;;50.50;39.50;;;;;10.05;42.70;102277.84;4997583;28;45447;-90
2022/03/01 02:34:39;;;;;;;;;46.50;37.75;;;;;9.78;42.46;102242.78;4997823;28;45378;-90
2022/03/01 02:37:05;;;;;;;;;46.50;37.25;;;;;9.68;42.59;102212.75;4997534;28;45469;-90
2022/03/01 02:39:30;;;;;;;;;53.25;42.00;;;;;10.18;42.62;102298.03;5015368;28;45430;-91
2022/03/01 02:41:56;;;;;;;;;44.75;37.25;;;;;10.02;42.84;102259.25;5014847;27;45325;-90
2022/03/01 02:44:21;;;;;;;;;56.00;43.50;;;;;10.03;42.52;102266.34;5015307;28;45381;-90
2022/03/01 02:46:47;;;;;;;;;54.25;41.50;;;;;9.31;42.77;102148.59;5014209;28;45625;-90
2022/03/01 02:49:12;;;;;;;;;39.75;34.25;;;;;9.74;42.55;102241.09;4997107;28;48421;-90
2022/03/01 02:51:38;;;;;;;;;51.25;40.50;;;;;9.25;42.91;102170.88;5014891;28;45418;-90
2022/03/01 02:54:05;;;;;;;;;48.75;37.00;;;;;9.94;42.92;102260.25;4997141;28;45420;-90
2022/03/01 02:56:30;;;;;;;;;39.75;35.00;;;;;9.92;43.20;102253.19;4997801;28;45302;-90
2022/03/01 02:58:56;;;;;;;;;50.00;39.50;;;;;9.84;42.91;102242.69;4996809;28;47098;-90
2022/03/01 03:01:26;;;;;;;;;52.00;42.50;;;;;9.76;42.64;102227.72;4997315;28;45401;-90
2022/03/01 03:03:51;;;;;;;;;46.75;36.75;;;;;10.06;42.56;102272.47;4996947;28;45602;-90
2022/03/01 03:06:17;;;;;;;;;51.50;39.00;;;;;9.66;42.44;102195.06;4997392;28;45530;-90
2022/03/01 03:08:43;;;;;;;;;48.25;39.75;;;;;10.54;42.63;102357.00;4997259;28;47082;-90
2022/03/01 03:11:09;;;;;;;;;46.00;37.75;;;;;9.66;42.53;102216.34;4996535;28;46131;-90
2022/03/01 03:13:34;;;;;;;;;42.00;34.75;;;;;10.49;42.66;102358.88;4997149;28;45316;-90
2022/03/01 03:16:00;;;;;;;;;46.50;38.75;;;;;9.70;42.89;102232.25;4997065;28;45568;-90
2022/03/01 03:18:25;;;;;;;;;46.25;36.50;;;;;10.41;42.60;102339.44;5014605;28;46512;-90
2022/03/01 03:20:51;;;;;;;;;40.75;36.00;;;;;10.54;42.92;102351.66;5014619;28;45419;-89
2022/03/01 03:23:16;;;;;;;;;50.25;39.50;;;;;9.96;43.08;102252.25;4996896;28;45275;-90
2022/03/01 03:25:42;;;;;;;;;42.00;36.00;;;;;9.89;42.66;102238.16;4997365;28;45508;-90
2022/03/01 03:28:07;;;;;;;;;47.00;37.50;;;;;9.92;42.48;102239.88;4996591;28;46877;-90
2022/03/01 03:30:33;;;;;;;;;47.25;37.00;;;;;9.77;42.70;102224.19;4996886;28;45779;-89
2022/03/01 03:32:58;;;;;;;;;48.75;41.00;;;;;9.66;42.63;102195.06;5014412;28;45384;-89
2022/03/01 03:35:23;;;;;;;;;47.50;37.00;;;;;9.92;42.68;102251.41;5020124;27;45594;-90
2022/03/01 03:37:49;;;;;;;;;46.00;39.50;;;;;10.51;42.61;102343.69;5079371;27;47982;-90
2022/03/01 03:40:14;;;;;;;;;54.00;40.50;;;;;10.20;42.66;102280.25;5078767;27;45467;-90
2022/03/01 03:42:41;;;;;;;;;48.00;37.00;;;;;9.90;43.00;102236.34;5098252;27;45687;-90
2022/03/01 03:45:08;;;;;;;;;50.75;42.50;;;;;10.45;42.87;102336.69;5098097;27;45384;-90
2022/03/01 03:47:33;;;;;;;;;51.00;41.75;;;;;9.80;42.68;102238.31;5097855;27;45357;-90
2022/03/01 03:49:59;;;;;;;;;49.75;39.25;;;;;10.26;43.00;102309.47;5097644;27;45364;-89
2022/03/01 03:52:24;;;;;;;;;48.50;39.00;;;;;9.49;43.32;102182.91;5079617;27;45337;-90
2022/03/01 03:54:50;;;;;;;;;49.00;41.25;;;;;10.20;43.19;102287.38;5080274;27;45603;-90
2022/03/01 03:57:16;;;;;;;;;44.50;36.00;;;;;9.71;43.27;102212.69;5107079;27;46259;-89
2022/03/01 03:59:42;;;;;;;;;48.75;40.75;;;;;10.47;42.80;102329.56;5081875;27;45741;-90
2022/03/01 04:02:07;;;;;;;;;47.25;40.25;;;;;9.89;43.02;102232.81;5080809;27;45326;-91
2022/03/01 04:04:33;;;;;;;;;46.50;38.50;;;;;9.93;43.25;102225.69;5080087;27;45310;-90
2022/03/01 04:06:59;;;;;;;;;49.75;40.75;;;;;10.14;42.93;102259.94;5079688;27;47428;-90
2022/03/01 04:09:25;;;;;;;;;47.00;39.00;;;;;10.05;43.43;102232.56;5097483;27;45425;-90
2022/03/01 04:11:51;;;;;;;;;51.00;38.75;;;;;10.05;42.96;102228.13;5079255;27;45500;-90
2022/03/01 04:14:17;;;;;;;;;47.25;39.25;;;;;9.14;42.95;102087.69;5079698;27;45638;-90
2022/03/01 04:16:43;;;;;;;;;49.00;37.50;;;;;9.69;43.11;102182.59;5079150;27;47833;-90
2022/03/01 04:19:09;;;;;;;;;47.75;37.00;;;;;10.12;43.16;102264.41;5078722;27;45638;-90
2022/03/01 04:21:35;;;;;;;;;46.50;38.25;;;;;10.25;43.57;102310.34;5097412;27;45341;-90
2022/03/01 04:24:01;;;;;;;;;43.50;35.50;;;;;10.40;43.66;102338.56;5079059;27;45397;-90
2022/03/01 04:26:27;;;;;;;;;48.75;36.50;;;;;9.85;43.47;102236.44;5097216;27;45470;-90
2022/03/01 04:28:52;;;;;;;;;50.25;40.00;;;;;9.92;43.61;102262.06;5078735;27;45740;-90
2022/03/01 04:31:18;;;;;;;;;46.25;37.00;;;;;9.77;43.74;102222.38;5078913;27;45381;-90
2022/03/01 04:33:43;;;;;;;;;46.75;39.00;;;;;9.64;43.70;102192.41;5079365;27;45430;-90
2022/03/01 04:36:08;;;;;;;;;45.25;38.00;;;;;9.77;43.49;102210.88;5054031;27;46162;-90
2022/03/01 04:38:34;;;;;;;;;44.00;36.00;;;;;9.98;43.15;102242.44;5061001;28;45697;-90
2022/03/01 04:41:00;;;;;;;;;42.25;35.75;;;;;10.17;43.39;102269.66;5002441;28;45435;-90
2022/03/01 04:43:26;;;;;;;;;47.00;37.50;;;;;9.85;42.76;102222.25;4995834;28;45381;-91
2022/03/01 04:45:52;;;;;;;;;39.00;34.50;;;;;10.42;42.82;102291.44;5013136;28;46860;-90
2022/03/01 04:48:17;;;;;;;;;41.00;35.25;;;;;9.99;42.52;102219.34;5012202;28;45474;-90
2022/03/01 04:50:43;;;;;;;;;40.50;33.25;;;;;9.86;42.16;102202.72;5012312;28;45411;-90
2022/03/01 04:53:08;;;;;;;;;36.75;31.00;;;;;10.69;41.92;102331.84;5014690;28;45431;-90
2022/03/01 04:55:34;;;;;;;;;41.25;33.50;;;;;10.70;42.02;102320.25;5015169;28;47948;-90
2022/03/01 04:58:00;;;;;;;;;36.50;32.50;;;;;10.74;42.13;102321.94;4998529;28;45704;-90
2022/03/01 05:00:26;;;;;;;;;35.00;33.00;;;;;10.67;41.78;102309.66;4998677;28;45366;-89
2022/03/01 05:02:52;;;;;;;;;32.75;30.00;;;;;9.99;41.75;102190.94;5016598;28;45305;-90
2022/03/01 05:05:17;;;;;;;;;36.25;31.50;;;;;10.20;41.42;102231.41;5014728;28;47324;-89
2022/03/01 05:07:44;;;;;;;;;34.25;32.00;;;;;10.85;41.38;102324.44;5015105;28;45326;-90
2022/03/01 05:10:12;;;;;;;;;30.25;29.00;;;;;10.21;41.14;102217.16;5016453;28;45442;-90
2022/03/01 05:12:58;;;;;;;;;34.00;30.75;;;;;10.89;41.21;102318.13;5016385;28;45524;-90
2022/03/01 05:15:26;;;;;;;;;34.75;30.75;;;;;10.78;41.07;102294.31;4998333;28;47126;-89
2022/03/01 05:17:53;;;;;;;;;42.75;32.75;;;;;10.25;41.22;102205.56;4998036;28;45865;-90
2022/03/01 05:20:20;;;;;;;;;36.75;32.50;;;;;10.13;40.81;102183.56;4998298;28;45444;-90
2022/03/01 05:22:46;;;;;;;;;34.00;29.75;;;;;10.38;40.80;102222.25;5016266;28;45469;-89
2022/03/01 05:25:13;;;;;;;;;30.50;29.00;;;;;9.92;40.46;102142.22;4998037;28;48192;-90
2022/03/01 05:27:41;;;;;;;;;40.50;32.25;;;;;10.51;40.66;102250.38;4998357;28;45951;-90
2022/03/01 05:30:08;;;;;;;;;38.25;31.25;;;;;10.97;40.43;102325.03;5015845;28;45400;-90
2022/03/01 05:32:35;;;;;;;;;38.50;33.00;;;;;10.62;40.87;102276.88;4998697;28;45491;-90
2022/03/01 05:35:02;;;;;;;;;35.25;31.00;;;;;10.69;40.30;102274.03;4995403;28;46996;-90
2022/03/01 05:37:27;;;;;;;;;33.50;30.25;;;;;10.12;40.36;102164.94;4993404;28;45438;-90
2022/03/01 05:39:53;;;;;;;;;33.25;30.75;;;;;10.43;40.09;102220.34;4978384;28;45353;-90
2022/03/01 05:42:18;;;;;;;;;31.50;29.75;;;;;10.28;40.51;102198.44;5077239;27;45446;-90
2022/03/01 05:44:44;;;;;;;;;34.75;31.50;;;;;10.53;40.47;102230.78;5098308;27;48009;-90
2022/03/01 05:47:09;;;;;;;;;27.00;25.25;;;;;11.07;40.51;102307.06;5099787;27;46035;-90
2022/03/01 05:49:35;;;;;;;;;35.00;30.00;;;;;10.62;40.59;102239.53;5099869;27;45481;-89
2022/03/01 05:52:01;;;;;;;;;38.75;33.50;;;;;11.08;40.46;102305.28;5099851;27;45457;-90
2022/03/01 05:54:26;;;;;;;;;39.50;30.50;;;;;11.08;40.38;102303.50;5081084;27;47182;-89
2022/03/01 05:56:52;;;;;;;;;33.50;29.50;;;;;10.66;40.16;102231.44;5099497;27;45344;-89
2022/03/01 05:59:17;;;;;;;;;38.25;30.75;;;;;10.20;40.16;102152.34;5078493;27;45429;-90
2022/03/01 06:01:42;;;;;;;;;39.25;33.00;;;;;10.42;40.15;102186.59;5098637;27;45355;-90
2022/03/01 06:04:08;;;;;;;;;34.50;30.00;;;;;10.61;40.57;102212.00;5093501;27;47903;-90
2022/03/01 06:06:33;;;;;;;;;36.00;32.00;;;;;10.59;40.02;102213.81;5080048;27;45810;-90
2022/03/01 06:08:58;;;;;;;;;35.50;31.00;;;;;10.67;40.56;102230.53;5081127;27;45384;-90
2022/03/01 06:11:24;;;;;;;;;37.50;31.75;;;;;10.44;40.34;102191.03;5079511;27;45629;-90
2022/03/01 06:13:49;;;;;;;;;37.75;32.00;;;;;10.44;40.76;102192.78;5099083;27;45475;-90
2022/03/01 06:16:14;;;;;;;;;38.50;32.75;;;;;10.60;41.16;102234.22;5099398;27;45400;-90
2022/03/01 06:18:40;;;;;;;;;35.00;31.25;;;;;10.39;41.72;102210.66;5099307;27;45309;-89
2022/03/01 06:21:05;;;;;;;;;47.75;39.50;;;;;10.34;42.08;102200.94;5098102;27;45331;-90
2022/03/01 06:23:32;;;;;;;;;50.00;40.25;;;;;10.11;41.97;102163.19;5080752;27;47782;-90
2022/03/01 06:25:58;;;;;;;;;50.75;41.25;;;;;10.80;42.06;102286.31;5098959;27;45404;-90
2022/03/01 06:28:23;;;;;;;;;52.75;41.00;;;;;10.42;42.56;102246.13;5080905;27;45386;-90
2022/03/01 06:30:49;;;;;;;;;53.25;41.00;;;;;10.42;42.34;102256.81;5077446;28;45572;-90
2022/03/01 06:33:17;;;;;;;;;47.75;38.00;;;;;10.47;42.68;102273.59;5077203;28;47049;-90
2022/03/01 06:35:43;;;;;;;;;50.50;40.00;;;;;10.31;42.60;102257.00;5093889;27;45783;-90
2022/03/01 06:38:09;;;;;;;;;51.25;43.00;;;;;10.43;42.63;102269.22;5077398;28;45353;-90
2022/03/01 06:40:34;;;;;;;;;48.00;41.25;;;;;10.30;43.07;102251.69;5072306;27;45501;-90
2022/03/01 06:42:59;;;;;;;;;53.50;41.75;;;;;10.05;43.07;102204.16;4995101;28;45592;-90
2022/03/01 06:45:25;;;;;;;;;51.75;41.50;;;;;10.06;43.21;102210.34;4994304;28;45515;-90
2022/03/01 06:47:50;;;;;;;;;52.75;42.00;;;;;10.27;43.43;102257.91;5010244;28;45646;-90
2022/03/01 06:50:16;;;;;;;;;55.75;43.75;;;;;10.26;43.21;102258.84;4994613;28;45566;-90
2022/03/01 06:52:41;;;;;;;;;54.25;43.25;;;;;10.50;43.36;102301.97;4993844;28;47411;-90
2022/03/01 06:55:09;;;;;;;;;57.25;45.75;;;;;10.86;43.38;102356.38;5010285;28;45457;-90
2022/03/01 06:57:37;;;;;;;;;57.25;44.00;;;;;10.62;43.84;102322.19;4995617;28;45489;-90
2022/03/01 07:00:03;;;;;;;;;56.75;44.75;;;;;10.87;42.99;102350.16;5010648;28;45292;-90
2022/03/01 07:02:29;;;;;;;;;56.50;44.25;;;;;10.22;43.35;102254.44;5010359;28;48263;-90
2022/03/01 07:04:57;;;;;;;;;54.00;44.50;;;;;10.09;43.49;102221.84;4995360;28;45391;-90
2022/03/01 07:07:23;;;;;;;;;51.50;41.25;;;;;10.57;43.45;102309.81;4995864;28;45299;-90
2022/03/01 07:09:49;;;;;;;;;50.75;40.25;;;;;10.55;43.61;102305.41;5010545;28;45485;-91
2022/03/01 07:12:14;;;;;;;;;53.25;42.25;;;;;10.26;42.98;102266.81;5010032;28;48067;-90
2022/03/01 07:14:39;;;;;;;;;54.00;42.00;;;;;10.21;42.74;102255.38;5035210;28;45285;-90
2022/03/01 07:17:05;;;;;;;;;48.75;39.00;;;;;10.06;43.29;102218.34;5010052;28;45241;-90
2022/03/01 07:19:30;;;;;;;;;54.50;43.25;;;;;9.70;43.45;102159.50;5010757;28;45446;-90
2022/03/01 07:21:56;;;;;;;;;52.50;41.00;;;;;10.10;43.33;102220.03;4993450;28;47132;-90
2022/03/01 07:24:21;;;;;;;;;47.25;39.50;;;;;10.10;43.58;102196.94;5010554;28;45501;-94
2022/03/01 07:26:46;;;;;;;;;52.00;43.00;;;;;11.14;43.00;102378.09;5010902;28;45294;-92
2022/03/01 07:29:12;;;;;;;;;55.00;42.00;;;;;10.87;43.10;102320.81;4994227;28;45208;-94
2022/03/01 07:31:37;;;;;;;;;49.25;39.75;;;;;10.15;42.89;102179.06;4998383;28;48066;-85
2022/03/01 07:34:03;;;;;;;;;53.50;43.50;;;;;10.42;43.18;102208.81;4994401;28;45348;-84
2022/03/01 07:36:29;;;;;;;;;52.75;43.00;;;;;10.22;43.41;102178.97;4984018;28;45422;-88
2022/03/01 07:38:54;;;;;;;;;54.00;42.00;;;;;10.75;43.38;102265.06;4994821;27;45450;-89
2022/03/01 07:41:19;;;;;;;;;50.50;41.25;;;;;10.85;43.62;102289.75;5027109;28;47481;-89
2022/03/01 07:43:45;;;;;;;;;53.50;44.50;;;;;10.55;43.38;102231.66;5089535;27;45413;-89
2022/03/01 07:46:13;;;;;;;;;50.25;41.00;;;;;10.19;43.11;102171.03;5074681;28;45428;-88
2022/03/01 07:48:39;;;;;;;;;53.00;43.00;;;;;10.25;43.08;102178.91;5078049;27;45585;-89
2022/03/01 07:51:05;;;;;;;;;50.00;42.75;;;;;11.29;43.44;102350.22;5091803;27;47331;-89
2022/03/01 07:53:30;;;;;;;;;51.50;40.25;;;;;10.89;43.46;102276.31;5095327;27;45280;-92
2022/03/01 07:55:56;;;;;;;;;47.50;39.25;;;;;10.72;43.02;102220.66;5097358;27;45305;-92
2022/03/01 07:58:21;;;;;;;;;51.25;42.25;;;;;10.76;42.38;102227.66;5079636;27;45323;-92
2022/03/01 08:00:46;;;;;;;;;52.75;42.00;;;;;10.85;42.80;102233.75;5097749;27;47927;-92
2022/03/01 08:03:12;;;;;;;;;49.50;42.00;;;;;11.06;42.57;102259.09;5097936;27;45695;-93
2022/03/01 08:05:37;;;;;;;;;49.50;41.00;;;;;11.70;42.63;102359.09;5098067;27;45285;-92
2022/03/01 08:08:03;;;;;;;;;51.00;39.25;;;;;10.40;42.62;102129.81;5077036;28;45715;-94
2022/03/01 08:10:28;;;;;;;;;51.00;42.50;;;;;11.45;42.78;102307.16;5065537;28;47210;-93
2022/03/01 08:12:55;;;;;;;;;52.50;41.50;;;;;10.56;42.14;102152.56;5077753;28;45249;-93
2022/03/01 08:15:23;;;;;;;;;50.00;41.75;;;;;10.63;42.56;102147.97;5061375;28;45426;-93
2022/03/01 08:17:54;;;;;;;;;49.75;41.25;;;;;11.40;42.42;102284.13;5061274;28;45459;-94
2022/03/01 08:20:20;;;;;;;;;55.50;44.00;;;;;10.87;42.44;102194.56;5058219;28;48443;-93
2022/03/01 08:22:45;;;;;;;;;52.00;41.50;;;;;11.60;42.15;102326.38;5077633;28;45439;-93
2022/03/01 08:25:12;;;;;;;;;52.00;42.50;;;;;11.01;41.85;102187.16;5077922;28;45674;-94
2022/03/01 08:27:37;;;;;;;;;52.50;43.00;;;;;11.10;41.73;102210.09;5081567;28;45399;-91
2022/03/01 08:30:03;;;;;;;;;42.00;36.50;;;;;11.60;42.93;102258.75;5059514;28;47207;-86
2022/03/01 08:32:28;;;;;;;;;49.25;41.00;;;;;12.17;43.47;102343.78;5073744;27;45488;-86
2022/03/01 08:34:54;;;;;;;;;46.75;39.00;;;;;12.40;42.20;102345.00;5098925;27;45490;-85
2022/03/01 08:37:19;;;;;;;;;50.25;41.75;;;;;11.98;43.39;102255.16;5084149;27;45616;-86
2022/03/01 08:39:44;;;;;;;;;54.00;42.25;;;;;12.61;41.33;102365.84;5087330;27;46427;-85
2022/03/01 08:42:10;;;;;;;;;51.50;40.50;;;;;12.70;41.18;102366.53;5038757;27;46019;-86
2022/03/01 08:44:35;;;;;;;;;44.75;38.25;;;;;12.77;41.28;102362.75;5008529;28;45526;-85
2022/03/01 08:47:00;;;;;;;;;54.75;43.25;;;;;12.54;41.27;102332.16;5005839;27;45551;-85
2022/03/01 08:49:26;;;;;;;;;49.50;40.00;;;;;12.60;41.16;102329.31;5009167;28;46413;-85
2022/03/01 08:51:51;;;;;;;;;54.50;43.25;;;;;11.69;40.70;102233.63;5010761;28;45543;-83
2022/03/01 08:54:17;;;;;;;;;51.00;41.25;;;;;12.24;41.46;102369.47;5008853;28;45530;-86
2022/03/01 08:56:42;;;;;;;;;53.50;43.25;;;;;11.92;42.45;102291.88;5009755;28;45489;-85
2022/03/01 08:59:09;;;;;;;;;53.00;43.25;;;;;12.70;42.07;102370.06;5008012;27;45570;-85
2022/03/01 09:01:34;;;;;;;;;52.25;43.25;;;;;12.72;41.72;102322.75;5014090;28;45400;-85
2022/03/01 09:04:00;;;;;;;;;47.25;39.25;;;;;12.98;41.03;102315.81;5014606;28;45577;-85
2022/03/01 09:06:26;;;;;;;;;49.50;42.00;;;;;12.92;40.77;102284.72;5008667;28;45626;-85
2022/03/01 09:08:52;;;;;;;;;53.50;43.50;;;;;13.56;40.21;102359.66;5029641;27;47525;-85
2022/03/01 09:11:17;;;;;;;;;50.00;42.25;;;;;13.11;41.03;102269.03;5022593;27;45359;-85
2022/03/01 09:13:43;;;;;;;;;57.25;46.50;;;;;13.92;39.92;102362.97;5004671;28;45582;-85
2022/03/01 09:16:09;;;;;;;;;55.50;45.50;;;;;14.09;39.36;102354.41;5014497;28;45593;-85
2022/03/01 09:18:35;;;;;;;;;51.50;41.75;;;;;14.30;39.40;102357.28;5008958;28;45870;-85
2022/03/01 09:21:01;;;;;;;;;55.75;42.75;;;;;13.94;39.29;102263.75;5010005;28;45381;-86
2022/03/01 09:23:26;;;;;;;;;58.00;45.00;;;;;14.33;38.66;102287.47;5014641;28;45516;-86
2022/03/01 09:25:52;;;;;;;;;52.00;40.00;;;;;14.47;38.31;102281.59;5015734;27;45556;-86
2022/03/01 09:28:18;;;;;;;;;52.25;39.00;;;;;14.93;37.51;102344.41;5009341;28;46837;-85
2022/03/01 09:30:45;;;;;;;;;40.25;36.75;;;;;14.87;37.02;102320.47;5006636;28;45476;-85
2022/03/01 09:33:10;;;;;;;;;52.25;40.00;;;;;14.97;35.43;102343.38;5032884;27;45346;-85
2022/03/01 09:35:35;;;;;;;;;46.75;38.00;;;;;14.78;36.13;102321.69;5026168;27;45419;-85
2022/03/01 09:38:01;;;;;;;;;42.75;36.75;;;;;14.67;35.86;102297.03;5013647;28;45535;-85
2022/03/01 09:40:26;;;;;;;;;34.75;32.50;;;;;14.93;35.62;102344.41;5012833;28;45595;-86
2022/03/01 09:42:52;;;;;;;;;38.75;35.50;;;;;14.82;35.42;102301.84;4977132;28;45508;-86
2022/03/01 09:45:18;;;;;;;;;36.50;33.50;;;;;15.08;35.17;102332.25;4977174;28;45528;-85
2022/03/01 09:47:43;;;;;;;;;45.00;38.00;;;;;15.05;34.98;102319.78;4992957;28;47215;-85
2022/03/01 09:50:10;;;;;;;;;40.75;36.00;;;;;14.73;35.11;102249.38;4975752;28;45595;-85
2022/03/01 09:52:36;;;;;;;;;45.25;38.50;;;;;15.49;34.83;102349.44;4993200;28;45338;-85
2022/03/01 09:55:03;;;;;;;;;34.00;33.00;;;;;15.85;35.53;102353.47;4973861;28;45659;-86
2022/03/01 09:57:28;;;;;;;;;43.75;37.50;;;;;16.22;34.29;102355.53;4992306;28;45538;-86
2022/03/01 09:59:54;;;;;;;;;37.25;34.50;;;;;16.36;33.84;102363.03;4986236;28;45272;-85
2022/03/01 10:02:19;;;;;;;;;44.75;34.50;;;;;16.19;34.23;102312.63;4963747;28;45429;-85
2022/03/01 10:04:57;;;;;;;;;38.75;33.50;;;;;16.40;33.44;102352.06;4994719;28;45444;-86
2022/03/01 10:07:24;;;;;;;;;33.75;29.75;;;;;16.53;33.48;102351.53;4990627;28;45507;-85
2022/03/01 10:09:51;;;;;;;;;43.50;35.00;;;;;16.54;34.80;102354.19;4981951;28;45499;-86
2022/03/01 10:12:27;;;;;;;;;36.25;33.50;;;;;16.48;33.00;102358.94;4974070;28;45340;-86
2022/03/01 10:15:03;;;;;;;;;52.50;43.00;;;;;16.12;33.44;102325.47;4976878;28;45494;-86
2022/03/01 10:17:46;;;;;;;;;41.50;36.25;;;;;16.19;33.45;102351.16;4992371;28;47333;-85
2022/03/01 10:20:14;;;;;;;;;42.25;33.75;;;;;16.09;33.88;102347.13;4993812;28;45346;-85
2022/03/01 10:22:44;;;;;;;;;40.25;35.25;;;;;15.80;36.27;102273.91;4994311;28;45642;-86
2022/03/01 10:25:11;;;;;;;;;42.50;34.75;;;;;15.85;33.66;102267.44;4994305;28;45475;-86
2022/03/01 10:27:36;;;;;;;;;45.25;37.50;;;;;16.04;34.94;102280.06;4984148;28;45429;-86
2022/03/01 10:30:06;;;;;;;;;40.75;31.25;;;;;16.62;34.35;102343.97;4985722;28;45416;-86
2022/03/01 10:32:32;;;;;;;;;40.75;35.00;;;;;16.68;32.90;102323.97;4991980;28;45455;-86
2022/03/01 10:35:08;;;;;;;;;36.50;34.25;;;;;16.85;33.12;102342.09;4994470;28;45488;-86
2022/03/01 10:37:36;;;;;;;;;50.25;39.00;;;;;15.99;32.92;102273.09;4993426;28;45581;-83
2022/03/01 10:40:15;;;;;;;;;49.00;39.50;;;;;15.83;34.17;102321.28;4993585;28;45577;-89
2022/03/01 10:42:41;;;;;;;;;40.25;33.00;;;;;15.33;34.04;102265.88;5027134;28;45556;-91
2022/03/01 10:45:09;;;;;;;;;46.00;34.00;;;;;15.51;34.24;102263.41;4990414;28;45330;-91
2022/03/01 10:47:35;;;;;;;;;50.75;38.75;;;;;16.07;34.08;102346.31;5005519;28;47289;-90
2022/03/01 10:50:09;;;;;;;;;35.75;33.50;;;;;15.26;33.85;102186.47;4988941;28;45627;-90
2022/03/01 10:52:37;;;;;;;;;37.25;27.25;;;;;15.90;33.80;102290.53;4974676;28;45414;-90
2022/03/01 10:55:04;;;;;;;;;39.25;33.00;;;;;14.86;33.69;102112.88;4988969;28;45504;-90
2022/03/01 10:57:29;;;;;;;;;37.25;33.50;;;;;15.59;34.02;102242.47;4969884;28;47221;-90
2022/03/01 10:59:55;;;;;;;;;41.50;35.25;;;;;15.41;33.86;102206.47;4986328;28;45354;-91
2022/03/01 11:02:20;;;;;;;;;44.00;37.25;;;;;14.93;34.10;102108.13;4988243;28;45602;-92
2022/03/01 11:04:47;;;;;;;;;43.50;35.75;;;;;15.57;33.34;102180.72;4994653;28;45488;-89
2022/03/01 11:07:13;;;;;;;;;60.00;47.00;;;;;16.21;33.33;102265.03;4994050;28;46572;-90